Time;durP1;ratioP1;P1;durP2;ratioP2;P2;SDS_P1;SDS_P2;PMS_P1;PMS_P2;Temp;Humidity;BMP_temperature;BMP_pressure;BME280_temperature;BME280_humidity;BME280_pressure;Samples;Min_cycle;Max_cycle;Signal;HPM_P1;HPM_P2
2022/07/27 00:01:21;;;;;;;7.55;1.80;;;;;;;;;;5054900;28;20036;-82
2022/07/27 00:04:06;;;;;;;4.55;1.60;;;;;;;;;;5054487;28;20225;-82
2022/07/27 00:06:50;;;;;;;5.05;1.33;;;;;;;;;;5019691;28;20045;-82
2022/07/27 00:09:35;;;;;;;3.85;1.52;;;;;;;;;;5051628;28;20056;-82
2022/07/27 00:12:20;;;;;;;8.07;1.63;;;;;;;;;;5054902;28;20083;-82
2022/07/27 00:15:05;;;;;;;4.50;1.73;;;;;;;;;;5054058;28;20086;-82
2022/07/27 00:17:50;;;;;;;5.43;1.55;;;;;;;;;;5038987;28;20048;-83
2022/07/27 00:20:34;;;;;;;5.10;1.60;;;;;;;;;;5039631;28;20071;-82
2022/07/27 00:23:19;;;;;;;7.03;2.10;;;;;;;;;;5054385;28;20032;-82
2022/07/27 00:26:03;;;;;;;4.03;1.70;;;;;;;;;;5024996;28;20044;-82
2022/07/27 00:28:48;;;;;;;7.20;1.77;;;;;;;;;;5039471;28;20044;-82
2022/07/27 00:31:33;;;;;;;9.35;1.58;;;;;;;;;;5054565;28;20492;-82
2022/07/27 00:34:17;;;;;;;9.68;1.98;;;;;;;;;;5039299;28;20111;-82
2022/07/27 00:37:02;;;;;;;5.55;2.03;;;;;;;;;;5030332;28;20084;-82
2022/07/27 00:39:47;;;;;;;5.18;1.80;;;;;;;;;;5054276;28;20087;-82
2022/07/27 00:42:31;;;;;;;5.38;1.83;;;;;;;;;;5054119;28;20384;-82
2022/07/27 00:45:16;;;;;;;5.03;2.22;;;;;;;;;;5051959;28;20044;-85
2022/07/27 00:48:00;;;;;;;4.68;2.08;;;;;;;;;;5053508;28;20458;-83
2022/07/27 00:50:45;;;;;;;6.97;3.40;;;;;;;;;;5019442;28;20045;-83
2022/07/27 00:53:30;;;;;;;4.65;1.50;;;;;;;;;;5039001;28;20040;-83
2022/07/27 00:56:15;;;;;;;8.57;2.17;;;;;;;;;;5053431;28;20090;-83
2022/07/27 00:59:00;;;;;;;8.30;1.88;;;;;;;;;;5052983;28;20075;-83
2022/07/27 01:01:44;;;;;;;6.47;1.77;;;;;;;;;;5038788;28;20036;-83
2022/07/27 01:04:29;;;;;;;7.03;1.77;;;;;;;;;;5038772;28;20059;-82
2022/07/27 01:07:14;;;;;;;4.72;1.77;;;;;;;;;;5053170;28;20048;-82
2022/07/27 01:09:59;;;;;;;8.40;2.63;;;;;;;;;;5038185;28;20091;-83
2022/07/27 01:12:44;;;;;;;4.47;1.67;;;;;;;;;;5054020;28;20063;-83
2022/07/27 01:15:29;;;;;;;10.23;2.08;;;;;;;;;;5053644;28;20108;-83
2022/07/27 01:18:34;;;;;;;9.30;1.92;;;;;;;;;;5043791;28;20087;-83
2022/07/27 01:21:19;;;;;;;5.95;1.85;;;;;;;;;;5039294;28;20503;-82
2022/07/27 01:24:04;;;;;;;6.03;2.00;;;;;;;;;;5018820;28;20036;-83
2022/07/27 01:26:49;;;;;;;7.97;2.10;;;;;;;;;;5053575;28;20098;-82
2022/07/27 01:29:34;;;;;;;5.35;1.70;;;;;;;;;;5038115;28;20039;-83
2022/07/27 01:32:19;;;;;;;10.85;2.28;;;;;;;;;;5037716;28;20044;-82
2022/07/27 01:35:04;;;;;;;4.40;1.85;;;;;;;;;;5052830;28;20060;-83
2022/07/27 01:37:48;;;;;;;5.53;1.90;;;;;;;;;;5052979;28;20040;-83
2022/07/27 01:40:35;;;;;;;5.70;1.58;;;;;;;;;;5038081;28;20551;-82
2022/07/27 01:43:20;;;;;;;4.80;1.90;;;;;;;;;;5037739;28;20068;-82
2022/07/27 01:46:05;;;;;;;8.98;2.33;;;;;;;;;;5037435;28;20094;-84
2022/07/27 01:48:49;;;;;;;6.95;1.90;;;;;;;;;;5042013;28;20542;-82
2022/07/27 01:51:34;;;;;;;5.47;2.10;;;;;;;;;;5052753;28;20036;-82
2022/07/27 01:54:19;;;;;;;6.68;2.00;;;;;;;;;;5052299;28;20044;-82
2022/07/27 01:57:04;;;;;;;7.35;2.05;;;;;;;;;;5051945;28;20067;-84
2022/07/27 01:59:48;;;;;;;8.20;2.20;;;;;;;;;;5052596;28;20036;-85
2022/07/27 02:02:33;;;;;;;4.82;2.30;;;;;;;;;;5037651;28;20307;-82
2022/07/27 02:05:17;;;;;;;8.35;2.60;;;;;;;;;;5036897;28;20116;-82
2022/07/27 02:08:02;;;;;;;10.75;3.00;;;;;;;;;;5052233;28;20106;-82
2022/07/27 02:14:01;;;;;;;4.28;1.85;;;;;;;;;;5030755;28;20095;-82
2022/07/27 02:16:46;;;;;;;3.95;1.95;;;;;;;;;;5046127;28;20048;-82
2022/07/27 02:19:30;;;;;;;9.90;3.55;;;;;;;;;;5052174;28;20524;-82
2022/07/27 02:22:15;;;;;;;7.20;2.13;;;;;;;;;;5051734;28;20094;-82
2022/07/27 02:25:01;;;;;;;6.63;1.80;;;;;;;;;;5036725;28;20039;-83
2022/07/27 02:27:46;;;;;;;5.93;1.75;;;;;;;;;;5049536;28;20044;-82
2022/07/27 02:30:31;;;;;;;5.05;1.80;;;;;;;;;;5034619;28;20047;-82
2022/07/27 02:33:15;;;;;;;4.63;1.52;;;;;;;;;;5050231;28;20044;-82
2022/07/27 02:36:00;;;;;;;7.32;1.60;;;;;;;;;;5036385;28;20067;-82
2022/07/27 02:38:45;;;;;;;6.40;1.88;;;;;;;;;;5048601;28;20464;-83
2022/07/27 02:41:29;;;;;;;7.55;2.10;;;;;;;;;;5023208;28;20075;-83
2022/07/27 02:44:16;;;;;;;6.20;1.70;;;;;;;;;;5035603;28;20111;-82
2022/07/27 02:47:01;;;;;;;7.15;1.80;;;;;;;;;;5052041;28;20505;-82
2022/07/27 02:49:45;;;;;;;4.65;1.98;;;;;;;;;;5051786;28;20043;-82
2022/07/27 02:52:30;;;;;;;8.48;1.98;;;;;;;;;;5051379;28;19931;-82
2022/07/27 02:55:14;;;;;;;4.38;1.50;;;;;;;;;;5051425;28;20394;-83
2022/07/27 02:57:59;;;;;;;6.30;1.65;;;;;;;;;;5052230;28;20060;-82
2022/07/27 03:00:44;;;;;;;4.85;2.00;;;;;;;;;;5036940;28;20076;-83
2022/07/27 03:03:28;;;;;;;5.22;1.90;;;;;;;;;;5051196;28;20071;-83
2022/07/27 03:06:13;;;;;;;5.40;1.75;;;;;;;;;;5051649;28;20492;-84
2022/07/27 03:08:57;;;;;;;6.28;1.67;;;;;;;;;;5036495;28;20071;-82
2022/07/27 03:11:42;;;;;;;12.05;4.60;;;;;;;;;;5036836;28;20120;-82
2022/07/27 03:14:26;;;;;;;3.70;1.90;;;;;;;;;;5036120;28;20040;-82
2022/07/27 03:17:11;;;;;;;5.50;1.80;;;;;;;;;;5051725;28;20070;-82
2022/07/27 03:19:55;;;;;;;8.38;2.28;;;;;;;;;;5054470;28;20492;-82
2022/07/27 03:22:40;;;;;;;7.75;2.13;;;;;;;;;;5055869;28;20040;-82
2022/07/27 03:25:24;;;;;;;4.55;1.77;;;;;;;;;;5055052;28;20071;-82
2022/07/27 03:28:09;;;;;;;4.60;2.08;;;;;;;;;;5040544;28;20087;-82
2022/07/27 03:30:54;;;;;;;5.95;1.90;;;;;;;;;;5055533;28;20079;-82
2022/07/27 03:33:38;;;;;;;7.90;1.85;;;;;;;;;;5055036;28;20064;-82
2022/07/27 03:36:23;;;;;;;7.88;1.80;;;;;;;;;;5040042;28;20465;-82
2022/07/27 03:39:07;;;;;;;6.75;1.90;;;;;;;;;;5055342;28;20094;-82
2022/07/27 03:41:52;;;;;;;6.18;2.10;;;;;;;;;;5055399;28;20071;-82
2022/07/27 03:44:36;;;;;;;6.72;2.22;;;;;;;;;;5039697;28;20151;-82
2022/07/27 03:47:21;;;;;;;10.25;2.25;;;;;;;;;;5054761;28;20063;-82
2022/07/27 03:50:05;;;;;;;4.03;2.17;;;;;;;;;;5055449;28;20052;-82
2022/07/27 03:52:50;;;;;;;5.80;2.20;;;;;;;;;;5055174;28;20106;-82
2022/07/27 03:55:35;;;;;;;12.10;2.72;;;;;;;;;;5054664;28;20417;-82
2022/07/27 03:58:22;;;;;;;8.90;2.28;;;;;;;;;;5054522;28;20060;-84
2022/07/27 04:01:06;;;;;;;5.80;2.35;;;;;;;;;;5039956;28;20044;-82
2022/07/27 04:03:51;;;;;;;11.80;3.00;;;;;;;;;;5054927;28;20044;-82
2022/07/27 04:06:35;;;;;;;9.00;2.80;;;;;;;;;;5039296;28;20040;-82
2022/07/27 04:09:20;;;;;;;8.90;3.05;;;;;;;;;;5028433;28;20457;-84
2022/07/27 04:12:04;;;;;;;8.68;2.90;;;;;;;;;;5039782;28;20428;-81
2022/07/27 04:14:49;;;;;;;11.88;3.42;;;;;;;;;;5039923;28;20040;-82
2022/07/27 04:17:34;;;;;;;7.38;2.63;;;;;;;;;;5039199;28;20106;-82
2022/07/27 04:20:19;;;;;;;6.95;2.20;;;;;;;;;;5039501;28;20111;-81
2022/07/27 04:23:03;;;;;;;8.20;4.05;;;;;;;;;;5054762;28;20047;-82
2022/07/27 04:25:48;;;;;;;11.20;3.78;;;;;;;;;;5039129;28;20056;-82
2022/07/27 04:28:33;;;;;;;5.72;2.50;;;;;;;;;;5038912;28;20090;-82
2022/07/27 04:31:17;;;;;;;6.45;2.50;;;;;;;;;;5026396;28;20040;-82
2022/07/27 04:34:02;;;;;;;5.82;2.10;;;;;;;;;;5054456;28;20497;-82
2022/07/27 04:36:48;;;;;;;7.25;2.10;;;;;;;;;;5053870;28;20555;-82
2022/07/27 04:39:32;;;;;;;8.95;2.10;;;;;;;;;;5053626;28;20040;-82
2022/07/27 04:42:17;;;;;;;10.30;2.60;;;;;;;;;;5054458;28;20076;-81
2022/07/27 04:45:02;;;;;;;4.90;1.73;;;;;;;;;;5054455;28;20043;-81
2022/07/27 04:47:47;;;;;;;6.95;1.95;;;;;;;;;;5053441;28;20043;-81
2022/07/27 04:50:32;;;;;;;8.00;2.10;;;;;;;;;;5053636;28;20075;-82
2022/07/27 04:53:16;;;;;;;7.13;1.95;;;;;;;;;;5054027;28;20036;-82
2022/07/27 04:56:01;;;;;;;7.00;1.80;;;;;;;;;;5054036;28;20075;-82
2022/07/27 04:58:46;;;;;;;6.30;2.00;;;;;;;;;;5053622;28;20106;-81
2022/07/27 05:01:31;;;;;;;4.60;1.90;;;;;;;;;;5053271;28;20048;-83
2022/07/27 05:04:15;;;;;;;7.25;2.63;;;;;;;;;;5053922;28;20062;-82
2022/07/27 05:07:00;;;;;;;11.77;2.30;;;;;;;;;;5038576;28;20032;-82
2022/07/27 05:09:45;;;;;;;8.75;2.53;;;;;;;;;;5053274;28;20043;-82
2022/07/27 05:12:30;;;;;;;6.93;2.20;;;;;;;;;;5053530;28;20036;-84
2022/07/27 05:15:15;;;;;;;7.13;2.00;;;;;;;;;;5038409;28;20060;-82
2022/07/27 05:18:00;;;;;;;5.35;1.88;;;;;;;;;;5053623;28;20126;-82
2022/07/27 05:20:44;;;;;;;9.48;2.30;;;;;;;;;;5052897;28;20043;-82
2022/07/27 05:23:29;;;;;;;7.63;3.15;;;;;;;;;;5053549;28;20086;-82
2022/07/27 05:26:13;;;;;;;10.10;2.42;;;;;;;;;;5053548;28;20044;-82
2022/07/27 12:40:12;;;;;;;3.13;0.80;;;;;;;;;;5084173;27;20398;-84
2022/07/27 12:45:36;;;;;;;3.88;1.23;;;;;;;;;;5132961;27;1279285;-81
2022/07/27 12:48:22;;;;;;;4.10;1.08;;;;;;;;;;5154868;27;20026;-81
2022/07/27 12:51:08;;;;;;;9.23;2.08;;;;;;;;;;5139123;27;20545;-84
2022/07/27 12:53:53;;;;;;;15.52;4.20;;;;;;;;;;5134793;27;20041;-81
2022/07/27 12:56:39;;;;;;;5.93;1.58;;;;;;;;;;5134003;27;20175;-86
2022/07/27 12:59:23;;;;;;;2.83;1.00;;;;;;;;;;5154616;27;20036;-84
2022/07/27 13:02:08;;;;;;;3.72;1.23;;;;;;;;;;5149092;27;20062;-82
2022/07/27 13:04:53;;;;;;;8.50;2.17;;;;;;;;;;5134423;27;20057;-81
2022/07/27 13:07:39;;;;;;;4.78;1.20;;;;;;;;;;5135506;27;20046;-82
2022/07/27 13:10:24;;;;;;;7.63;1.70;;;;;;;;;;5135333;27;20037;-82
2022/07/27 13:13:08;;;;;;;6.13;1.58;;;;;;;;;;5150830;27;20037;-80
2022/07/27 13:15:53;;;;;;;2.78;0.80;;;;;;;;;;5145904;27;20195;-82
2022/07/27 13:18:38;;;;;;;5.07;1.50;;;;;;;;;;5150601;27;20046;-81
2022/07/27 13:21:22;;;;;;;3.50;0.93;;;;;;;;;;5150556;27;20075;-81
2022/07/27 13:24:08;;;;;;;4.00;0.90;;;;;;;;;;5121739;27;20037;-81
2022/07/27 13:26:53;;;;;;;2.85;1.08;;;;;;;;;;5150007;27;20486;-81
2022/07/27 13:29:38;;;;;;;4.25;1.67;;;;;;;;;;5147522;27;20042;-83
2022/07/27 13:32:23;;;;;;;4.68;1.13;;;;;;;;;;5150432;27;20050;-82
2022/07/27 13:35:11;;;;;;;4.50;1.10;;;;;;;;;;5124672;27;20049;-84
2022/07/27 13:37:55;;;;;;;4.53;1.23;;;;;;;;;;5134009;27;20042;-81
2022/07/27 13:40:39;;;;;;;1.80;0.93;;;;;;;;;;5134470;27;20053;-82
2022/07/27 13:43:24;;;;;;;4.13;1.08;;;;;;;;;;5134580;27;20425;-82
2022/07/27 13:46:09;;;;;;;4.97;1.77;;;;;;;;;;5133558;27;20399;-83
2022/07/27 13:48:53;;;;;;;4.70;1.83;;;;;;;;;;5134053;27;20123;-83
2022/07/27 13:51:38;;;;;;;3.35;0.80;;;;;;;;;;5146059;27;20102;-80
2022/07/27 13:54:23;;;;;;;5.53;1.15;;;;;;;;;;5149914;27;20038;-81
2022/07/27 13:57:07;;;;;;;4.43;1.15;;;;;;;;;;5139995;27;20513;-82
2022/07/27 13:59:52;;;;;;;3.72;0.90;;;;;;;;;;5126021;27;20041;-81
2022/07/27 14:02:38;;;;;;;3.58;1.52;;;;;;;;;;5126937;27;20107;-82
2022/07/27 14:05:23;;;;;;;2.15;0.90;;;;;;;;;;5126726;27;20038;-83
2022/07/27 14:08:07;;;;;;;3.63;0.80;;;;;;;;;;5120012;27;20058;-83
2022/07/27 14:10:52;;;;;;;6.45;1.65;;;;;;;;;;5127081;27;20074;-84
2022/07/27 14:13:36;;;;;;;4.88;1.10;;;;;;;;;;5140709;27;20099;-81
2022/07/27 14:16:21;;;;;;;2.58;1.02;;;;;;;;;;5156523;27;20042;-81
2022/07/27 14:19:07;;;;;;;3.88;1.10;;;;;;;;;;5140177;27;20037;-84
2022/07/27 14:21:52;;;;;;;4.75;1.40;;;;;;;;;;5112434;27;20386;-87
2022/07/27 14:24:40;;;;;;;6.38;1.70;;;;;;;;;;5108485;27;20042;-83
2022/07/27 14:27:24;;;;;;;5.57;1.50;;;;;;;;;;5153312;27;20406;-83
2022/07/27 14:30:09;;;;;;;6.07;1.17;;;;;;;;;;5140103;27;20059;-82
2022/07/27 14:32:54;;;;;;;2.60;1.08;;;;;;;;;;5155913;27;20088;-86
2022/07/27 14:35:39;;;;;;;7.25;1.33;;;;;;;;;;5140355;27;20394;-83
2022/07/27 14:38:24;;;;;;;3.10;0.93;;;;;;;;;;5126076;27;20535;-84
2022/07/27 14:41:09;;;;;;;7.72;1.17;;;;;;;;;;5139705;27;20025;-85
2022/07/27 14:43:53;;;;;;;3.92;1.50;;;;;;;;;;5140382;27;20038;-87
2022/07/27 14:46:38;;;;;;;3.15;1.02;;;;;;;;;;5140399;27;20057;-82
2022/07/27 14:49:23;;;;;;;5.10;1.13;;;;;;;;;;5140305;27;20041;-83
2022/07/27 14:52:12;;;;;;;4.95;1.05;;;;;;;;;;5155367;27;20059;-83
2022/07/27 14:54:59;;;;;;;3.65;0.90;;;;;;;;;;5125697;27;20042;-86
2022/07/27 14:57:45;;;;;;;5.03;0.85;;;;;;;;;;5140627;27;20531;-86
2022/07/27 15:00:30;;;;;;;4.00;0.88;;;;;;;;;;5140182;27;20038;-81
2022/07/27 15:03:15;;;;;;;3.45;1.00;;;;;;;;;;5155024;27;20033;-81
2022/07/27 15:05:59;;;;;;;4.68;1.05;;;;;;;;;;5139558;27;20398;-83
2022/07/27 15:08:44;;;;;;;7.68;1.10;;;;;;;;;;5124545;27;20034;-81
2022/07/27 15:11:29;;;;;;;5.03;1.05;;;;;;;;;;5125472;27;20046;-81
2022/07/27 15:14:15;;;;;;;6.40;1.30;;;;;;;;;;5139127;27;20034;-83
2022/07/27 15:17:00;;;;;;;4.68;0.98;;;;;;;;;;5154822;27;20398;-87
2022/07/27 15:19:44;;;;;;;3.80;2.15;;;;;;;;;;5125256;27;20083;-84
2022/07/27 15:22:29;;;;;;;3.88;1.10;;;;;;;;;;5125062;27;20083;-81
2022/07/27 15:25:14;;;;;;;3.05;1.20;;;;;;;;;;5124512;27;20042;-80
2022/07/27 15:27:58;;;;;;;5.45;1.05;;;;;;;;;;5139484;27;20037;-80
2022/07/27 15:30:43;;;;;;;4.43;1.20;;;;;;;;;;5139270;27;20041;-82
2022/07/27 15:33:27;;;;;;;5.05;1.17;;;;;;;;;;5154820;27;20041;-81
2022/07/27 15:36:12;;;;;;;3.65;1.00;;;;;;;;;;5138580;27;20034;-82
2022/07/27 15:38:56;;;;;;;3.10;1.10;;;;;;;;;;5124642;27;20447;-83
2022/07/27 15:41:41;;;;;;;2.60;1.05;;;;;;;;;;5139308;27;20042;-83
2022/07/27 15:44:26;;;;;;;4.43;1.00;;;;;;;;;;5138226;27;20037;-82
2022/07/27 15:47:11;;;;;;;3.65;0.90;;;;;;;;;;5124177;27;20049;-82
2022/07/27 15:49:56;;;;;;;3.60;0.88;;;;;;;;;;5139178;27;20167;-82
2022/07/27 15:52:40;;;;;;;5.53;1.13;;;;;;;;;;5124503;27;20056;-81
2022/07/27 15:55:25;;;;;;;4.50;1.02;;;;;;;;;;5123863;27;20108;-82
2022/07/27 15:58:10;;;;;;;4.70;1.10;;;;;;;;;;5138298;27;20142;-82
2022/07/27 16:00:58;;;;;;;4.32;1.17;;;;;;;;;;5139044;27;20037;-83
2022/07/27 16:03:43;;;;;;;7.43;1.35;;;;;;;;;;5138583;27;20034;-84
2022/07/27 16:06:28;;;;;;;4.88;0.82;;;;;;;;;;5123775;27;20869;-83
2022/07/27 16:09:12;;;;;;;4.05;0.90;;;;;;;;;;5138329;27;20041;-84
2022/07/27 16:11:57;;;;;;;2.58;1.00;;;;;;;;;;5138413;27;20033;-82
2022/07/27 16:14:43;;;;;;;4.22;1.02;;;;;;;;;;5124086;27;20398;-83
2022/07/27 16:17:28;;;;;;;5.55;1.00;;;;;;;;;;5137968;27;20048;-84
2022/07/27 16:20:12;;;;;;;2.70;1.08;;;;;;;;;;5123434;27;20088;-82
2022/07/27 16:22:57;;;;;;;2.65;0.90;;;;;;;;;;5112451;27;20038;-84
2022/07/27 16:25:41;;;;;;;2.78;0.95;;;;;;;;;;5138317;27;20489;-84
2022/07/27 16:28:26;;;;;;;3.47;0.90;;;;;;;;;;5137990;27;20034;-83
2022/07/27 16:31:17;;;;;;;2.45;0.85;;;;;;;;;;5137895;27;20080;-83
2022/07/27 16:34:01;;;;;;;3.40;1.45;;;;;;;;;;5153709;27;20046;-84
2022/07/27 16:36:47;;;;;;;1.98;0.85;;;;;;;;;;5123972;27;20073;-82
2022/07/27 16:39:33;;;;;;;1.88;0.88;;;;;;;;;;5153229;27;20158;-82
2022/07/27 16:42:18;;;;;;;3.58;0.93;;;;;;;;;;5153336;27;20056;-83
2022/07/27 16:45:03;;;;;;;5.85;1.30;;;;;;;;;;5129489;27;20158;-84
2022/07/27 16:47:48;;;;;;;2.60;1.00;;;;;;;;;;5117776;27;20041;-81
2022/07/27 16:50:33;;;;;;;2.63;1.10;;;;;;;;;;5114891;27;20391;-84
2022/07/27 16:53:18;;;;;;;2.42;0.90;;;;;;;;;;5135223;27;20410;-82
2022/07/27 16:56:02;;;;;;;3.92;0.95;;;;;;;;;;5114527;27;20046;-81
2022/07/27 16:58:47;;;;;;;2.92;1.10;;;;;;;;;;5137941;27;20092;-81
2022/07/27 17:01:32;;;;;;;6.95;1.27;;;;;;;;;;5137567;27;20095;-86
2022/07/27 17:04:18;;;;;;;3.63;1.20;;;;;;;;;;5137766;27;20234;-83
2022/07/27 17:07:03;;;;;;;5.70;1.00;;;;;;;;;;5137953;27;20030;-83
2022/07/27 17:09:48;;;;;;;3.63;1.10;;;;;;;;;;5138158;27;20035;-83
2022/07/27 17:12:32;;;;;;;2.92;1.23;;;;;;;;;;5153184;27;20038;-82
2022/07/27 17:15:17;;;;;;;5.05;1.05;;;;;;;;;;5137451;27;20057;-86
2022/07/27 17:18:01;;;;;;;4.45;1.10;;;;;;;;;;5123662;27;20501;-81
2022/07/27 17:20:46;;;;;;;3.80;1.00;;;;;;;;;;5123330;27;20374;-82
2022/07/27 17:23:36;;;;;;;3.38;1.20;;;;;;;;;;5123015;27;20041;-81
2022/07/27 17:26:21;;;;;;;5.38;1.45;;;;;;;;;;5141055;27;20034;-82
2022/07/27 17:29:06;;;;;;;4.40;1.13;;;;;;;;;;5123470;27;20453;-82
2022/07/27 17:31:50;;;;;;;5.60;1.10;;;;;;;;;;5126429;27;20042;-83
2022/07/27 17:34:35;;;;;;;3.60;1.55;;;;;;;;;;5141120;27;20045;-81
2022/07/27 17:37:20;;;;;;;3.97;1.60;;;;;;;;;;5141235;27;20038;-86
2022/07/27 17:40:05;;;;;;;3.83;0.95;;;;;;;;;;5141831;27;20034;-81
2022/07/27 17:42:50;;;;;;;3.88;0.95;;;;;;;;;;5141590;27;20029;-83
2022/07/27 17:45:34;;;;;;;3.22;1.30;;;;;;;;;;5126090;27;20547;-81
2022/07/27 17:48:19;;;;;;;2.30;0.90;;;;;;;;;;5126994;27;20389;-82
2022/07/27 17:51:04;;;;;;;1.67;0.80;;;;;;;;;;5156837;27;20037;-82
2022/07/27 17:53:49;;;;;;;4.80;1.30;;;;;;;;;;5120792;27;20091;-83
2022/07/27 17:56:34;;;;;;;2.95;1.05;;;;;;;;;;5116401;27;20115;-82
2022/07/27 17:59:19;;;;;;;2.50;1.20;;;;;;;;;;5141167;27;20033;-81
2022/07/27 18:02:04;;;;;;;5.05;1.30;;;;;;;;;;5124753;27;20033;-82
2022/07/27 18:04:49;;;;;;;3.83;0.93;;;;;;;;;;5139643;27;20045;-81
2022/07/27 18:07:34;;;;;;;6.05;1.30;;;;;;;;;;5126603;27;20092;-82
2022/07/27 18:10:19;;;;;;;2.58;0.90;;;;;;;;;;5129255;27;20135;-85
2022/07/27 18:13:04;;;;;;;3.55;1.00;;;;;;;;;;5141255;27;20066;-81
2022/07/27 18:15:49;;;;;;;3.50;1.00;;;;;;;;;;5122154;27;20088;-83
2022/07/27 18:18:35;;;;;;;4.47;0.98;;;;;;;;;;5130212;27;20042;-81
2022/07/27 18:21:20;;;;;;;2.70;1.00;;;;;;;;;;5137913;27;20079;-83
2022/07/27 18:24:05;;;;;;;3.00;1.05;;;;;;;;;;5121907;27;20034;-84
2022/07/27 18:26:50;;;;;;;5.75;1.23;;;;;;;;;;5115312;27;20494;-82
2022/07/27 18:29:34;;;;;;;4.28;1.23;;;;;;;;;;5123739;27;20038;-82
2022/07/27 18:32:19;;;;;;;5.18;1.15;;;;;;;;;;5119558;27;20382;-82
2022/07/27 18:35:04;;;;;;;2.58;0.95;;;;;;;;;;5119168;27;20056;-82
2022/07/27 18:37:49;;;;;;;3.25;0.93;;;;;;;;;;5121566;27;20093;-81
2022/07/27 18:40:34;;;;;;;8.82;2.25;;;;;;;;;;5119074;27;20043;-81
2022/07/27 18:43:19;;;;;;;2.97;0.90;;;;;;;;;;5119330;27;20087;-83
2022/07/27 18:46:04;;;;;;;3.88;1.30;;;;;;;;;;5139022;27;20054;-83
2022/07/27 18:48:49;;;;;;;4.05;1.25;;;;;;;;;;5152865;27;20037;-86
2022/07/27 18:51:33;;;;;;;5.28;1.88;;;;;;;;;;5135819;27;20155;-85
2022/07/27 18:54:18;;;;;;;3.22;1.13;;;;;;;;;;5132578;27;20543;-84
2022/07/27 18:57:03;;;;;;;4.28;1.40;;;;;;;;;;5131698;27;20087;-83
2022/07/27 18:59:50;;;;;;;7.55;2.90;;;;;;;;;;5134172;27;20095;-85
2022/07/27 19:02:35;;;;;;;6.50;1.95;;;;;;;;;;5118253;27;20038;-84
2022/07/27 19:05:21;;;;;;;3.85;1.00;;;;;;;;;;5118303;27;20512;-80
2022/07/27 19:08:10;;;;;;;3.53;1.30;;;;;;;;;;5110890;27;20035;-83
2022/07/27 19:10:54;;;;;;;3.60;1.48;;;;;;;;;;5133977;27;20075;-83
2022/07/27 19:13:39;;;;;;;10.10;3.53;;;;;;;;;;5119846;27;20493;-80
2022/07/27 19:16:24;;;;;;;6.20;1.63;;;;;;;;;;5118745;27;20216;-85
2022/07/27 19:19:09;;;;;;;6.75;1.85;;;;;;;;;;5136753;27;20038;-84
2022/07/27 19:21:53;;;;;;;11.02;2.92;;;;;;;;;;5118250;27;20050;-83
2022/07/27 19:24:38;;;;;;;3.95;1.02;;;;;;;;;;5117965;27;20073;-84
2022/07/27 19:27:23;;;;;;;5.63;1.25;;;;;;;;;;5133951;27;20031;-83
2022/07/27 19:30:10;;;;;;;3.70;1.33;;;;;;;;;;5116551;27;20038;-86
